Avon Park, Florida
Current Conditions -  °F | °C
As of 8:47 AM on Saturday 22 Nov 2014 (Local Time) from KBOW Reporting Station
Haze Haze  
Wind Chill: 19°   Ceiling: 2500
Heat Index: 19°   Visibility: 5mi
Dew Point: 19°   Wind: 14mph
Humidity: 100%   Direction: 50°NE
Pressure: 30.25"   Gusts: NA
Location:  27.6°N, 81.51°W
Report Text: KBOW 221347Z 05012KT 5SM BR BKN025 OVC034 19/19 A3025
Loading
Personal Weather Stations






























Interactive Weather Map New forecast layout! Learn more

10-Day Weather Forecast

Advertisements
Track Severe Weather on mobile